sensor_id;sensor_type;location;lat;lon;timestamp;P1;durP1;ratioP1;P2;durP2;ratioP2
15402;SDS011;7799;53.478;10.170;2023-05-08T00:01:23;2.50;;;2.30;;
15402;SDS011;7799;53.478;10.170;2023-05-08T00:03:50;2.40;;;2.20;;
15402;SDS011;7799;53.478;10.170;2023-05-08T00:06:17;2.53;;;2.33;;
15402;SDS011;7799;53.478;10.170;2023-05-08T00:08:43;2.13;;;2.03;;
15402;SDS011;7799;53.478;10.170;2023-05-08T00:11:10;2.10;;;2.00;;
15402;SDS011;7799;53.478;10.170;2023-05-08T00:13:37;2.23;;;2.13;;
15402;SDS011;7799;53.478;10.170;2023-05-08T00:16:05;2.67;;;2.47;;
15402;SDS011;7799;53.478;10.170;2023-05-08T00:18:34;2.77;;;2.23;;
15402;SDS011;7799;53.478;10.170;2023-05-08T00:21:01;2.70;;;2.50;;
15402;SDS011;7799;53.478;10.170;2023-05-08T00:23:28;2.47;;;2.27;;
15402;SDS011;7799;53.478;10.170;2023-05-08T00:25:55;2.17;;;2.07;;
15402;SDS011;7799;53.478;10.170;2023-05-08T00:28:21;2.53;;;2.40;;
15402;SDS011;7799;53.478;10.170;2023-05-08T00:30:48;2.47;;;2.33;;
15402;SDS011;7799;53.478;10.170;2023-05-08T00:33:15;2.73;;;2.53;;
15402;SDS011;7799;53.478;10.170;2023-05-08T00:35:43;2.50;;;2.30;;
15402;SDS011;7799;53.478;10.170;2023-05-08T00:38:09;2.60;;;2.27;;
15402;SDS011;7799;53.478;10.170;2023-05-08T00:40:36;2.20;;;2.10;;
15402;SDS011;7799;53.478;10.170;2023-05-08T00:43:03;2.57;;;2.43;;
15402;SDS011;7799;53.478;10.170;2023-05-08T00:45:31;2.77;;;2.57;;
15402;SDS011;7799;53.478;10.170;2023-05-08T00:47:58;3.00;;;2.80;;
15402;SDS011;7799;53.478;10.170;2023-05-08T00:50:25;2.57;;;2.37;;
15402;SDS011;7799;53.478;10.170;2023-05-08T00:52:53;2.80;;;2.50;;
15402;SDS011;7799;53.478;10.170;2023-05-08T00:55:20;3.40;;;3.10;;
15402;SDS011;7799;53.478;10.170;2023-05-08T00:57:47;2.63;;;2.43;;
15402;SDS011;7799;53.478;10.170;2023-05-08T01:00:14;4.17;;;2.63;;
15402;SDS011;7799;53.478;10.170;2023-05-08T01:02:43;2.73;;;2.53;;
15402;SDS011;7799;53.478;10.170;2023-05-08T01:05:10;2.80;;;2.60;;
15402;SDS011;7799;53.478;10.170;2023-05-08T01:07:37;3.00;;;2.80;;
15402;SDS011;7799;53.478;10.170;2023-05-08T01:10:05;2.60;;;2.40;;
15402;SDS011;7799;53.478;10.170;2023-05-08T01:12:35;2.53;;;2.33;;
15402;SDS011;7799;53.478;10.170;2023-05-08T01:15:09;2.97;;;2.70;;
15402;SDS011;7799;53.478;10.170;2023-05-08T01:17:45;2.93;;;2.33;;
15402;SDS011;7799;53.478;10.170;2023-05-08T01:20:23;2.27;;;2.17;;
15402;SDS011;7799;53.478;10.170;2023-05-08T01:23:05;2.50;;;2.30;;
15402;SDS011;7799;53.478;10.170;2023-05-08T01:28:57;2.37;;;2.17;;
15402;SDS011;7799;53.478;10.170;2023-05-08T01:31:42;2.90;;;2.10;;
15402;SDS011;7799;53.478;10.170;2023-05-08T01:34:19;2.63;;;2.30;;
15402;SDS011;7799;53.478;10.170;2023-05-08T01:36:49;2.23;;;2.10;;
15402;SDS011;7799;53.478;10.170;2023-05-08T01:39:17;2.50;;;2.30;;
15402;SDS011;7799;53.478;10.170;2023-05-08T01:41:48;2.57;;;2.37;;
15402;SDS011;7799;53.478;10.170;2023-05-08T01:44:17;2.20;;;2.00;;
15402;SDS011;7799;53.478;10.170;2023-05-08T01:46:47;2.80;;;2.53;;
15402;SDS011;7799;53.478;10.170;2023-05-08T01:49:16;2.67;;;2.47;;
15402;SDS011;7799;53.478;10.170;2023-05-08T01:51:52;2.70;;;2.50;;
15402;SDS011;7799;53.478;10.170;2023-05-08T01:54:23;2.33;;;2.23;;
15402;SDS011;7799;53.478;10.170;2023-05-08T01:56:52;2.57;;;2.37;;
15402;SDS011;7799;53.478;10.170;2023-05-08T01:59:21;2.50;;;2.30;;
15402;SDS011;7799;53.478;10.170;2023-05-08T02:01:50;3.43;;;2.50;;
15402;SDS011;7799;53.478;10.170;2023-05-08T02:04:19;3.10;;;2.83;;
15402;SDS011;7799;53.478;10.170;2023-05-08T02:06:48;2.57;;;2.40;;
15402;SDS011;7799;53.478;10.170;2023-05-08T02:09:16;2.57;;;2.37;;
15402;SDS011;7799;53.478;10.170;2023-05-08T02:11:43;3.07;;;2.77;;
15402;SDS011;7799;53.478;10.170;2023-05-08T02:14:15;2.70;;;2.50;;
15402;SDS011;7799;53.478;10.170;2023-05-08T02:16:45;2.90;;;2.70;;
15402;SDS011;7799;53.478;10.170;2023-05-08T02:19:13;3.23;;;2.80;;
15402;SDS011;7799;53.478;10.170;2023-05-08T02:21:42;3.00;;;2.80;;
15402;SDS011;7799;53.478;10.170;2023-05-08T02:24:10;3.17;;;2.80;;
15402;SDS011;7799;53.478;10.170;2023-05-08T02:26:38;3.40;;;3.10;;
15402;SDS011;7799;53.478;10.170;2023-05-08T02:29:06;3.47;;;3.17;;
15402;SDS011;7799;53.478;10.170;2023-05-08T02:31:34;3.37;;;3.10;;
15402;SDS011;7799;53.478;10.170;2023-05-08T02:34:01;2.97;;;2.77;;
15402;SDS011;7799;53.478;10.170;2023-05-08T02:36:31;3.07;;;2.87;;
15402;SDS011;7799;53.478;10.170;2023-05-08T02:39:00;3.13;;;2.93;;
15402;SDS011;7799;53.478;10.170;2023-05-08T02:41:29;3.20;;;2.90;;
15402;SDS011;7799;53.478;10.170;2023-05-08T02:43:57;3.47;;;3.17;;
15402;SDS011;7799;53.478;10.170;2023-05-08T02:46:25;3.03;;;2.80;;
15402;SDS011;7799;53.478;10.170;2023-05-08T02:48:56;3.10;;;2.90;;
15402;SDS011;7799;53.478;10.170;2023-05-08T02:51:24;3.20;;;2.90;;
15402;SDS011;7799;53.478;10.170;2023-05-08T02:53:57;3.57;;;2.93;;
15402;SDS011;7799;53.478;10.170;2023-05-08T02:56:30;2.90;;;2.70;;
15402;SDS011;7799;53.478;10.170;2023-05-08T02:59:00;2.90;;;2.70;;
15402;SDS011;7799;53.478;10.170;2023-05-08T03:01:39;2.97;;;2.77;;
15402;SDS011;7799;53.478;10.170;2023-05-08T03:04:10;2.93;;;2.73;;
15402;SDS011;7799;53.478;10.170;2023-05-08T03:06:39;2.90;;;2.70;;
15402;SDS011;7799;53.478;10.170;2023-05-08T03:09:11;2.97;;;2.77;;
15402;SDS011;7799;53.478;10.170;2023-05-08T03:11:42;2.57;;;2.37;;
15402;SDS011;7799;53.478;10.170;2023-05-08T03:14:11;2.50;;;2.30;;
15402;SDS011;7799;53.478;10.170;2023-05-08T03:16:43;2.60;;;2.40;;
15402;SDS011;7799;53.478;10.170;2023-05-08T03:19:14;2.40;;;2.30;;
15402;SDS011;7799;53.478;10.170;2023-05-08T03:21:42;2.43;;;2.27;;
15402;SDS011;7799;53.478;10.170;2023-05-08T03:24:10;2.37;;;2.17;;
15402;SDS011;7799;53.478;10.170;2023-05-08T03:26:37;2.33;;;2.13;;
15402;SDS011;7799;53.478;10.170;2023-05-08T03:29:04;2.30;;;2.10;;
15402;SDS011;7799;53.478;10.170;2023-05-08T03:31:32;2.60;;;2.40;;
15402;SDS011;7799;53.478;10.170;2023-05-08T03:34:01;2.77;;;2.57;;
15402;SDS011;7799;53.478;10.170;2023-05-08T03:36:27;2.83;;;2.63;;
15402;SDS011;7799;53.478;10.170;2023-05-08T03:38:56;2.80;;;2.60;;
15402;SDS011;7799;53.478;10.170;2023-05-08T03:41:35;2.87;;;2.67;;
15402;SDS011;7799;53.478;10.170;2023-05-08T03:44:01;2.60;;;2.40;;
15402;SDS011;7799;53.478;10.170;2023-05-08T03:46:29;2.53;;;2.33;;
15402;SDS011;7799;53.478;10.170;2023-05-08T03:48:56;2.63;;;2.43;;
15402;SDS011;7799;53.478;10.170;2023-05-08T03:51:24;2.77;;;2.57;;
15402;SDS011;7799;53.478;10.170;2023-05-08T03:53:52;2.87;;;2.67;;
15402;SDS011;7799;53.478;10.170;2023-05-08T03:56:21;3.10;;;2.90;;
15402;SDS011;7799;53.478;10.170;2023-05-08T03:58:52;3.00;;;2.80;;
15402;SDS011;7799;53.478;10.170;2023-05-08T04:01:22;2.90;;;2.70;;
15402;SDS011;7799;53.478;10.170;2023-05-08T04:03:55;2.60;;;2.40;;
15402;SDS011;7799;53.478;10.170;2023-05-08T04:06:28;3.37;;;3.07;;
15402;SDS011;7799;53.478;10.170;2023-05-08T04:09:00;3.30;;;3.00;;
15402;SDS011;7799;53.478;10.170;2023-05-08T04:11:30;2.87;;;2.67;;
15402;SDS011;7799;53.478;10.170;2023-05-08T04:14:03;3.00;;;2.80;;
15402;SDS011;7799;53.478;10.170;2023-05-08T04:16:34;2.80;;;2.60;;
15402;SDS011;7799;53.478;10.170;2023-05-08T04:19:06;3.17;;;2.97;;
15402;SDS011;7799;53.478;10.170;2023-05-08T04:21:38;3.10;;;2.90;;
15402;SDS011;7799;53.478;10.170;2023-05-08T04:24:09;3.00;;;2.80;;
15402;SDS011;7799;53.478;10.170;2023-05-08T04:26:38;2.80;;;2.60;;
15402;SDS011;7799;53.478;10.170;2023-05-08T04:29:07;3.00;;;2.80;;
15402;SDS011;7799;53.478;10.170;2023-05-08T04:31:34;3.57;;;3.27;;
15402;SDS011;7799;53.478;10.170;2023-05-08T04:34:02;3.60;;;3.30;;
15402;SDS011;7799;53.478;10.170;2023-05-08T04:36:30;3.73;;;2.90;;
15402;SDS011;7799;53.478;10.170;2023-05-08T04:38:59;3.40;;;3.10;;
15402;SDS011;7799;53.478;10.170;2023-05-08T04:41:26;3.07;;;2.80;;
15402;SDS011;7799;53.478;10.170;2023-05-08T04:43:53;4.20;;;3.70;;
15402;SDS011;7799;53.478;10.170;2023-05-08T04:46:21;3.50;;;3.20;;
15402;SDS011;7799;53.478;10.170;2023-05-08T04:48:48;3.40;;;3.10;;
15402;SDS011;7799;53.478;10.170;2023-05-08T04:51:16;3.73;;;3.43;;
15402;SDS011;7799;53.478;10.170;2023-05-08T04:53:42;3.63;;;3.43;;
15402;SDS011;7799;53.478;10.170;2023-05-08T04:56:09;3.93;;;3.63;;
15402;SDS011;7799;53.478;10.170;2023-05-08T04:58:36;3.77;;;3.50;;
15402;SDS011;7799;53.478;10.170;2023-05-08T05:01:03;4.20;;;3.83;;
15402;SDS011;7799;53.478;10.170;2023-05-08T05:03:32;3.53;;;3.23;;
15402;SDS011;7799;53.478;10.170;2023-05-08T05:05:59;4.37;;;4.07;;
15402;SDS011;7799;53.478;10.170;2023-05-08T05:08:27;4.20;;;3.90;;
15402;SDS011;7799;53.478;10.170;2023-05-08T05:10:54;4.60;;;4.20;;
15402;SDS011;7799;53.478;10.170;2023-05-08T05:13:21;4.70;;;4.30;;
15402;SDS011;7799;53.478;10.170;2023-05-08T05:15:48;5.07;;;4.27;;
15402;SDS011;7799;53.478;10.170;2023-05-08T05:18:18;5.20;;;4.80;;
15402;SDS011;7799;53.478;10.170;2023-05-08T05:20:47;5.07;;;4.60;;
15402;SDS011;7799;53.478;10.170;2023-05-08T05:23:14;4.87;;;4.47;;
15402;SDS011;7799;53.478;10.170;2023-05-08T05:25:40;5.10;;;4.70;;
15402;SDS011;7799;53.478;10.170;2023-05-08T05:28:07;4.57;;;4.17;;
15402;SDS011;7799;53.478;10.170;2023-05-08T05:30:34;4.30;;;3.90;;
15402;SDS011;7799;53.478;10.170;2023-05-08T05:33:01;4.40;;;4.00;;
15402;SDS011;7799;53.478;10.170;2023-05-08T05:35:27;5.57;;;4.17;;
15402;SDS011;7799;53.478;10.170;2023-05-08T05:37:56;4.53;;;4.23;;
15402;SDS011;7799;53.478;10.170;2023-05-08T05:40:23;4.70;;;4.30;;
15402;SDS011;7799;53.478;10.170;2023-05-08T05:42:50;5.20;;;4.70;;
15402;SDS011;7799;53.478;10.170;2023-05-08T05:45:17;4.50;;;4.07;;
15402;SDS011;7799;53.478;10.170;2023-05-08T05:47:44;5.00;;;4.50;;
15402;SDS011;7799;53.478;10.170;2023-05-08T05:50:15;4.50;;;4.20;;
15402;SDS011;7799;53.478;10.170;2023-05-08T05:52:43;4.07;;;3.77;;
15402;SDS011;7799;53.478;10.170;2023-05-08T05:55:12;4.30;;;4.00;;
15402;SDS011;7799;53.478;10.170;2023-05-08T05:57:39;5.03;;;4.53;;
15402;SDS011;7799;53.478;10.170;2023-05-08T06:00:06;4.50;;;4.20;;
15402;SDS011;7799;53.478;10.170;2023-05-08T06:02:45;4.73;;;4.33;;
15402;SDS011;7799;53.478;10.170;2023-05-08T06:05:14;4.80;;;4.40;;
15402;SDS011;7799;53.478;10.170;2023-05-08T06:07:40;4.53;;;4.13;;
15402;SDS011;7799;53.478;10.170;2023-05-08T06:10:07;5.00;;;4.60;;
15402;SDS011;7799;53.478;10.170;2023-05-08T06:12:36;4.73;;;4.30;;
15402;SDS011;7799;53.478;10.170;2023-05-08T06:15:04;4.73;;;4.20;;
15402;SDS011;7799;53.478;10.170;2023-05-08T06:17:32;4.40;;;4.00;;
15402;SDS011;7799;53.478;10.170;2023-05-08T06:19:58;5.60;;;4.50;;
15402;SDS011;7799;53.478;10.170;2023-05-08T06:22:25;5.00;;;4.60;;
15402;SDS011;7799;53.478;10.170;2023-05-08T06:24:53;5.20;;;4.73;;
15402;SDS011;7799;53.478;10.170;2023-05-08T06:27:21;4.80;;;4.40;;
15402;SDS011;7799;53.478;10.170;2023-05-08T06:29:49;4.67;;;4.27;;
15402;SDS011;7799;53.478;10.170;2023-05-08T06:32:17;4.60;;;3.83;;
15402;SDS011;7799;53.478;10.170;2023-05-08T06:34:43;5.20;;;4.80;;
15402;SDS011;7799;53.478;10.170;2023-05-08T06:37:10;5.40;;;5.00;;
15402;SDS011;7799;53.478;10.170;2023-05-08T06:39:37;4.80;;;4.40;;
15402;SDS011;7799;53.478;10.170;2023-05-08T06:42:04;5.10;;;4.70;;
15402;SDS011;7799;53.478;10.170;2023-05-08T06:44:35;4.93;;;4.53;;
15402;SDS011;7799;53.478;10.170;2023-05-08T06:47:03;5.17;;;4.67;;
15402;SDS011;7799;53.478;10.170;2023-05-08T06:49:30;4.43;;;3.90;;
15402;SDS011;7799;53.478;10.170;2023-05-08T06:51:56;5.03;;;4.63;;
15402;SDS011;7799;53.478;10.170;2023-05-08T06:54:23;5.30;;;4.80;;
15402;SDS011;7799;53.478;10.170;2023-05-08T06:56:51;5.10;;;4.70;;
15402;SDS011;7799;53.478;10.170;2023-05-08T06:59:17;5.13;;;4.73;;
15402;SDS011;7799;53.478;10.170;2023-05-08T07:01:44;5.30;;;4.83;;
15402;SDS011;7799;53.478;10.170;2023-05-08T07:04:12;5.20;;;4.70;;
15402;SDS011;7799;53.478;10.170;2023-05-08T07:06:39;5.07;;;4.67;;
15402;SDS011;7799;53.478;10.170;2023-05-08T07:09:05;5.57;;;5.17;;
15402;SDS011;7799;53.478;10.170;2023-05-08T07:11:32;5.07;;;4.70;;
15402;SDS011;7799;53.478;10.170;2023-05-08T07:13:59;5.27;;;4.77;;
15402;SDS011;7799;53.478;10.170;2023-05-08T07:16:25;5.23;;;4.83;;
15402;SDS011;7799;53.478;10.170;2023-05-08T07:18:54;5.37;;;4.87;;
15402;SDS011;7799;53.478;10.170;2023-05-08T07:21:22;5.90;;;5.40;;
15402;SDS011;7799;53.478;10.170;2023-05-08T07:23:49;5.23;;;4.83;;
15402;SDS011;7799;53.478;10.170;2023-05-08T07:26:17;5.93;;;5.43;;
15402;SDS011;7799;53.478;10.170;2023-05-08T07:28:44;5.43;;;5.03;;
15402;SDS011;7799;53.478;10.170;2023-05-08T07:31:11;5.33;;;4.93;;
15402;SDS011;7799;53.478;10.170;2023-05-08T07:33:37;5.60;;;5.10;;
15402;SDS011;7799;53.478;10.170;2023-05-08T07:36:05;5.13;;;4.73;;
15402;SDS011;7799;53.478;10.170;2023-05-08T07:38:33;5.40;;;5.00;;
15402;SDS011;7799;53.478;10.170;2023-05-08T07:41:00;5.90;;;5.20;;
15402;SDS011;7799;53.478;10.170;2023-05-08T07:43:29;5.43;;;4.97;;
15402;SDS011;7799;53.478;10.170;2023-05-08T07:45:56;5.93;;;5.43;;
15402;SDS011;7799;53.478;10.170;2023-05-08T07:48:22;6.17;;;5.67;;
15402;SDS011;7799;53.478;10.170;2023-05-08T07:50:49;5.73;;;5.30;;
15402;SDS011;7799;53.478;10.170;2023-05-08T07:53:16;6.20;;;5.70;;
15402;SDS011;7799;53.478;10.170;2023-05-08T07:55:44;5.87;;;5.37;;
15402;SDS011;7799;53.478;10.170;2023-05-08T07:58:11;5.70;;;5.20;;
15402;SDS011;7799;53.478;10.170;2023-05-08T08:00:37;6.60;;;5.43;;
15402;SDS011;7799;53.478;10.170;2023-05-08T08:03:05;6.07;;;5.53;;
15402;SDS011;7799;53.478;10.170;2023-05-08T08:05:31;5.67;;;5.27;;
15402;SDS011;7799;53.478;10.170;2023-05-08T08:07:58;5.90;;;5.40;;
15402;SDS011;7799;53.478;10.170;2023-05-08T08:10:25;6.50;;;5.90;;
15402;SDS011;7799;53.478;10.170;2023-05-08T08:12:53;6.27;;;5.73;;
15402;SDS011;7799;53.478;10.170;2023-05-08T08:15:19;6.30;;;5.80;;
15402;SDS011;7799;53.478;10.170;2023-05-08T08:17:46;5.57;;;5.17;;
15402;SDS011;7799;53.478;10.170;2023-05-08T08:20:13;5.80;;;5.40;;
15402;SDS011;7799;53.478;10.170;2023-05-08T08:22:39;5.90;;;5.40;;
15402;SDS011;7799;53.478;10.170;2023-05-08T08:25:06;5.90;;;5.40;;
15402;SDS011;7799;53.478;10.170;2023-05-08T08:27:34;5.77;;;5.27;;
15402;SDS011;7799;53.478;10.170;2023-05-08T08:30:02;5.70;;;5.20;;
15402;SDS011;7799;53.478;10.170;2023-05-08T08:32:29;5.93;;;5.53;;
15402;SDS011;7799;53.478;10.170;2023-05-08T08:34:55;6.07;;;5.57;;
15402;SDS011;7799;53.478;10.170;2023-05-08T08:37:22;5.83;;;5.33;;
15402;SDS011;7799;53.478;10.170;2023-05-08T08:39:50;5.30;;;4.90;;
15402;SDS011;7799;53.478;10.170;2023-05-08T08:42:17;5.40;;;5.00;;
15402;SDS011;7799;53.478;10.170;2023-05-08T08:44:43;5.73;;;5.23;;
15402;SDS011;7799;53.478;10.170;2023-05-08T08:47:12;5.87;;;5.37;;
15402;SDS011;7799;53.478;10.170;2023-05-08T08:49:46;6.30;;;5.80;;
15402;SDS011;7799;53.478;10.170;2023-05-08T08:52:14;6.00;;;5.47;;
15402;SDS011;7799;53.478;10.170;2023-05-08T08:54:48;6.37;;;5.77;;
15402;SDS011;7799;53.478;10.170;2023-05-08T08:57:15;6.33;;;5.83;;
15402;SDS011;7799;53.478;10.170;2023-05-08T08:59:41;6.20;;;5.60;;
15402;SDS011;7799;53.478;10.170;2023-05-08T09:02:09;6.63;;;6.03;;
15402;SDS011;7799;53.478;10.170;2023-05-08T09:04:41;6.10;;;5.60;;
15402;SDS011;7799;53.478;10.170;2023-05-08T09:07:08;5.97;;;5.57;;
15402;SDS011;7799;53.478;10.170;2023-05-08T09:09:36;5.77;;;5.27;;
15402;SDS011;7799;53.478;10.170;2023-05-08T09:12:05;6.10;;;5.50;;
15402;SDS011;7799;53.478;10.170;2023-05-08T09:14:32;5.50;;;5.10;;
15402;SDS011;7799;53.478;10.170;2023-05-08T09:16:58;5.73;;;5.17;;
15402;SDS011;7799;53.478;10.170;2023-05-08T09:19:26;5.83;;;5.33;;
15402;SDS011;7799;53.478;10.170;2023-05-08T09:21:53;5.43;;;4.93;;
15402;SDS011;7799;53.478;10.170;2023-05-08T09:24:20;4.87;;;4.57;;
15402;SDS011;7799;53.478;10.170;2023-05-08T09:26:47;5.03;;;4.63;;
15402;SDS011;7799;53.478;10.170;2023-05-08T09:29:14;5.00;;;4.60;;
15402;SDS011;7799;53.478;10.170;2023-05-08T09:31:43;4.80;;;4.40;;
15402;SDS011;7799;53.478;10.170;2023-05-08T09:34:10;4.90;;;4.50;;
15402;SDS011;7799;53.478;10.170;2023-05-08T09:36:48;4.67;;;4.37;;
15402;SDS011;7799;53.478;10.170;2023-05-08T09:39:20;4.67;;;4.23;;
15402;SDS011;7799;53.478;10.170;2023-05-08T09:41:56;4.03;;;3.73;;
15402;SDS011;7799;53.478;10.170;2023-05-08T09:44:24;4.67;;;4.37;;
15402;SDS011;7799;53.478;10.170;2023-05-08T09:46:50;4.20;;;3.90;;
15402;SDS011;7799;53.478;10.170;2023-05-08T09:49:18;4.47;;;4.07;;
15402;SDS011;7799;53.478;10.170;2023-05-08T09:51:51;4.47;;;4.07;;
15402;SDS011;7799;53.478;10.170;2023-05-08T09:54:19;3.80;;;3.60;;
15402;SDS011;7799;53.478;10.170;2023-05-08T09:56:45;4.47;;;4.10;;
15402;SDS011;7799;53.478;10.170;2023-05-08T09:59:22;4.23;;;3.93;;
15402;SDS011;7799;53.478;10.170;2023-05-08T10:01:50;4.40;;;4.03;;
15402;SDS011;7799;53.478;10.170;2023-05-08T10:04:17;3.93;;;3.63;;
15402;SDS011;7799;53.478;10.170;2023-05-08T10:06:55;3.40;;;3.20;;
15402;SDS011;7799;53.478;10.170;2023-05-08T10:09:22;4.10;;;3.80;;
15402;SDS011;7799;53.478;10.170;2023-05-08T10:11:49;4.00;;;3.70;;
15402;SDS011;7799;53.478;10.170;2023-05-08T10:14:17;3.97;;;3.67;;
15402;SDS011;7799;53.478;10.170;2023-05-08T10:16:44;3.73;;;3.43;;
15402;SDS011;7799;53.478;10.170;2023-05-08T10:19:13;4.00;;;3.60;;
15402;SDS011;7799;53.478;10.170;2023-05-08T10:21:42;4.07;;;3.77;;
15402;SDS011;7799;53.478;10.170;2023-05-08T10:24:14;3.80;;;3.50;;
15402;SDS011;7799;53.478;10.170;2023-05-08T10:26:42;4.47;;;4.17;;
15402;SDS011;7799;53.478;10.170;2023-05-08T10:29:24;4.03;;;3.70;;
15402;SDS011;7799;53.478;10.170;2023-05-08T10:31:56;3.80;;;3.50;;
15402;SDS011;7799;53.478;10.170;2023-05-08T10:34:24;3.70;;;3.37;;
15402;SDS011;7799;53.478;10.170;2023-05-08T10:36:53;3.57;;;3.27;;
15402;SDS011;7799;53.478;10.170;2023-05-08T10:39:21;3.70;;;3.40;;
15402;SDS011;7799;53.478;10.170;2023-05-08T10:41:48;3.70;;;3.50;;
15402;SDS011;7799;53.478;10.170;2023-05-08T10:44:15;3.43;;;3.13;;
15402;SDS011;7799;53.478;10.170;2023-05-08T10:46:44;3.03;;;2.77;;
15402;SDS011;7799;53.478;10.170;2023-05-08T10:49:16;4.37;;;3.17;;
15402;SDS011;7799;53.478;10.170;2023-05-08T10:51:46;2.70;;;2.40;;
15402;SDS011;7799;53.478;10.170;2023-05-08T10:54:23;2.77;;;2.57;;
15402;SDS011;7799;53.478;10.170;2023-05-08T10:56:52;2.90;;;2.60;;
15402;SDS011;7799;53.478;10.170;2023-05-08T10:59:33;3.13;;;2.93;;
15402;SDS011;7799;53.478;10.170;2023-05-08T11:02:02;2.83;;;2.60;;
15402;SDS011;7799;53.478;10.170;2023-05-08T11:04:29;2.83;;;2.63;;
15402;SDS011;7799;53.478;10.170;2023-05-08T11:06:56;2.70;;;2.50;;
15402;SDS011;7799;53.478;10.170;2023-05-08T11:09:27;2.97;;;2.67;;
15402;SDS011;7799;53.478;10.170;2023-05-08T11:11:58;2.30;;;2.10;;
15402;SDS011;7799;53.478;10.170;2023-05-08T11:14:32;2.70;;;2.50;;
15402;SDS011;7799;53.478;10.170;2023-05-08T11:17:03;2.63;;;2.30;;
15402;SDS011;7799;53.478;10.170;2023-05-08T11:19:31;2.10;;;2.00;;
15402;SDS011;7799;53.478;10.170;2023-05-08T11:22:10;2.50;;;2.30;;
15402;SDS011;7799;53.478;10.170;2023-05-08T11:24:49;2.43;;;2.30;;
15402;SDS011;7799;53.478;10.170;2023-05-08T11:27:29;2.60;;;2.40;;
15402;SDS011;7799;53.478;10.170;2023-05-08T11:30:20;4.73;;;2.47;;
15402;SDS011;7799;53.478;10.170;2023-05-08T11:35:40;2.40;;;2.20;;
15402;SDS011;7799;53.478;10.170;2023-05-08T11:38:14;2.17;;;2.07;;
15402;SDS011;7799;53.478;10.170;2023-05-08T11:40:54;2.33;;;2.10;;
15402;SDS011;7799;53.478;10.170;2023-05-08T11:43:30;2.17;;;1.97;;
15402;SDS011;7799;53.478;10.170;2023-05-08T11:46:02;2.00;;;1.90;;
15402;SDS011;7799;53.478;10.170;2023-05-08T11:48:30;2.03;;;1.83;;
15402;SDS011;7799;53.478;10.170;2023-05-08T11:50:57;2.33;;;2.10;;
15402;SDS011;7799;53.478;10.170;2023-05-08T11:53:24;1.63;;;1.47;;
15402;SDS011;7799;53.478;10.170;2023-05-08T11:55:52;2.60;;;2.00;;
15402;SDS011;7799;53.478;10.170;2023-05-08T11:58:20;1.83;;;1.70;;
15402;SDS011;7799;53.478;10.170;2023-05-08T12:00:47;1.40;;;1.30;;
15402;SDS011;7799;53.478;10.170;2023-05-08T12:03:15;1.60;;;1.50;;
15402;SDS011;7799;53.478;10.170;2023-05-08T12:05:43;1.77;;;1.67;;
15402;SDS011;7799;53.478;10.170;2023-05-08T12:08:11;2.00;;;1.80;;
15402;SDS011;7799;53.478;10.170;2023-05-08T12:10:39;2.10;;;1.83;;
15402;SDS011;7799;53.478;10.170;2023-05-08T12:13:16;2.90;;;1.60;;
15402;SDS011;7799;53.478;10.170;2023-05-08T12:15:44;1.83;;;1.73;;
15402;SDS011;7799;53.478;10.170;2023-05-08T12:18:11;1.60;;;1.50;;
15402;SDS011;7799;53.478;10.170;2023-05-08T12:20:38;2.30;;;1.67;;
15402;SDS011;7799;53.478;10.170;2023-05-08T12:23:04;1.70;;;1.60;;
15402;SDS011;7799;53.478;10.170;2023-05-08T12:25:32;1.83;;;1.40;;
15402;SDS011;7799;53.478;10.170;2023-05-08T12:27:59;2.00;;;1.67;;
15402;SDS011;7799;53.478;10.170;2023-05-08T12:30:27;1.70;;;1.60;;
15402;SDS011;7799;53.478;10.170;2023-05-08T12:32:55;2.03;;;1.50;;
15402;SDS011;7799;53.478;10.170;2023-05-08T12:35:21;1.97;;;1.67;;
15402;SDS011;7799;53.478;10.170;2023-05-08T12:37:49;1.70;;;1.60;;
15402;SDS011;7799;53.478;10.170;2023-05-08T12:40:24;1.87;;;1.50;;
15402;SDS011;7799;53.478;10.170;2023-05-08T12:42:51;1.43;;;1.33;;
15402;SDS011;7799;53.478;10.170;2023-05-08T12:45:18;1.40;;;1.30;;
15402;SDS011;7799;53.478;10.170;2023-05-08T12:47:47;1.80;;;1.70;;
15402;SDS011;7799;53.478;10.170;2023-05-08T12:50:14;1.50;;;1.40;;
15402;SDS011;7799;53.478;10.170;2023-05-08T12:52:41;2.20;;;1.60;;
15402;SDS011;7799;53.478;10.170;2023-05-08T12:55:21;1.70;;;1.60;;
15402;SDS011;7799;53.478;10.170;2023-05-08T12:57:49;1.60;;;1.50;;
15402;SDS011;7799;53.478;10.170;2023-05-08T13:00:17;1.50;;;1.40;;
15402;SDS011;7799;53.478;10.170;2023-05-08T13:02:52;1.57;;;1.23;;
15402;SDS011;7799;53.478;10.170;2023-05-08T13:05:19;1.70;;;1.60;;
15402;SDS011;7799;53.478;10.170;2023-05-08T13:07:47;1.80;;;1.70;;
15402;SDS011;7799;53.478;10.170;2023-05-08T13:10:14;2.27;;;1.60;;
15402;SDS011;7799;53.478;10.170;2023-05-08T13:12:42;1.48;;;1.38;;
15402;SDS011;7799;53.478;10.170;2023-05-08T13:15:09;1.45;;;1.35;;
15402;SDS011;7799;53.478;10.170;2023-05-08T13:17:36;1.70;;;1.60;;
15402;SDS011;7799;53.478;10.170;2023-05-08T13:20:05;1.85;;;1.55;;
15402;SDS011;7799;53.478;10.170;2023-05-08T13:22:34;1.90;;;1.73;;
15402;SDS011;7799;53.478;10.170;2023-05-08T13:25:01;1.60;;;1.50;;
15402;SDS011;7799;53.478;10.170;2023-05-08T13:27:28;1.23;;;1.13;;
15402;SDS011;7799;53.478;10.170;2023-05-08T13:29:55;1.90;;;1.73;;
15402;SDS011;7799;53.478;10.170;2023-05-08T13:32:21;1.60;;;1.50;;
15402;SDS011;7799;53.478;10.170;2023-05-08T13:34:48;2.03;;;1.50;;
15402;SDS011;7799;53.478;10.170;2023-05-08T13:37:16;1.50;;;1.40;;
15402;SDS011;7799;53.478;10.170;2023-05-08T13:39:43;1.67;;;1.53;;
15402;SDS011;7799;53.478;10.170;2023-05-08T13:42:10;1.50;;;1.40;;
15402;SDS011;7799;53.478;10.170;2023-05-08T13:44:36;1.60;;;1.50;;
15402;SDS011;7799;53.478;10.170;2023-05-08T13:47:03;1.50;;;1.40;;
15402;SDS011;7799;53.478;10.170;2023-05-08T13:49:30;1.57;;;1.33;;
15402;SDS011;7799;53.478;10.170;2023-05-08T13:51:56;1.37;;;1.27;;
15402;SDS011;7799;53.478;10.170;2023-05-08T13:54:27;1.63;;;1.30;;
15402;SDS011;7799;53.478;10.170;2023-05-08T13:56:54;1.87;;;1.60;;
15402;SDS011;7799;53.478;10.170;2023-05-08T13:59:20;2.80;;;1.70;;
15402;SDS011;7799;53.478;10.170;2023-05-08T14:01:47;1.40;;;1.30;;
15402;SDS011;7799;53.478;10.170;2023-05-08T14:04:14;1.85;;;1.55;;
15402;SDS011;7799;53.478;10.170;2023-05-08T14:06:40;1.67;;;1.10;;
15402;SDS011;7799;53.478;10.170;2023-05-08T14:09:07;3.70;;;1.55;;
15402;SDS011;7799;53.478;10.170;2023-05-08T14:11:35;1.30;;;1.20;;
15402;SDS011;7799;53.478;10.170;2023-05-08T14:14:02;2.08;;;1.30;;
15402;SDS011;7799;53.478;10.170;2023-05-08T14:16:29;1.27;;;1.20;;
15402;SDS011;7799;53.478;10.170;2023-05-08T14:18:55;1.10;;;1.10;;
15402;SDS011;7799;53.478;10.170;2023-05-08T14:21:22;2.15;;;1.27;;
15402;SDS011;7799;53.478;10.170;2023-05-08T14:23:49;1.67;;;1.20;;
15402;SDS011;7799;53.478;10.170;2023-05-08T14:26:15;1.10;;;1.10;;
15402;SDS011;7799;53.478;10.170;2023-05-08T14:28:43;1.70;;;1.20;;
15402;SDS011;7799;53.478;10.170;2023-05-08T14:31:10;1.50;;;1.40;;
15402;SDS011;7799;53.478;10.170;2023-05-08T14:33:37;1.83;;;1.30;;
15402;SDS011;7799;53.478;10.170;2023-05-08T14:36:04;1.50;;;1.40;;
15402;SDS011;7799;53.478;10.170;2023-05-08T14:38:31;1.15;;;0.98;;
15402;SDS011;7799;53.478;10.170;2023-05-08T14:40:57;1.43;;;1.20;;
15402;SDS011;7799;53.478;10.170;2023-05-08T14:43:24;1.27;;;1.17;;
15402;SDS011;7799;53.478;10.170;2023-05-08T14:45:52;1.20;;;1.10;;
15402;SDS011;7799;53.478;10.170;2023-05-08T14:48:18;1.00;;;1.00;;
15402;SDS011;7799;53.478;10.170;2023-05-08T14:50:45;1.42;;;1.27;;
15402;SDS011;7799;53.478;10.170;2023-05-08T14:53:12;1.40;;;1.30;;
15402;SDS011;7799;53.478;10.170;2023-05-08T14:55:38;1.30;;;1.20;;
15402;SDS011;7799;53.478;10.170;2023-05-08T14:58:05;1.70;;;1.20;;
15402;SDS011;7799;53.478;10.170;2023-05-08T15:00:32;1.30;;;1.20;;
15402;SDS011;7799;53.478;10.170;2023-05-08T15:03:00;1.65;;;1.40;;